sensor_id;sensor_type;location;lat;lon;timestamp;pressure;altitude;pressure_sealevel;temperature;humidity
30463;BME280;17256;43.618;25.336;2023-05-19T00:28:24;100661.78;;;14.23;100.00
30463;BME280;17256;43.618;25.336;2023-05-19T00:30:56;100389.03;;;12.60;100.00
30463;BME280;17256;43.618;25.336;2023-05-19T00:33:43;100352.25;;;12.42;100.00
30463;BME280;17256;43.618;25.336;2023-05-19T00:36:40;100378.81;;;12.74;100.00
30463;BME280;17256;43.618;25.336;2023-05-19T00:39:12;100638.44;;;14.19;100.00
30463;BME280;17256;43.618;25.336;2023-05-19T01:12:29;100778.44;;;14.69;100.00
30463;BME280;17256;43.618;25.336;2023-05-19T01:32:32;100347.06;;;12.00;100.00
30463;BME280;17256;43.618;25.336;2023-05-19T03:33:49;100438.94;;;11.80;100.00
30463;BME280;17256;43.618;25.336;2023-05-19T03:36:15;100612.78;;;13.02;100.00
30463;BME280;17256;43.618;25.336;2023-05-19T04:04:05;100725.34;;;15.11;100.00
30463;BME280;17256;43.618;25.336;2023-05-19T04:06:33;100550.41;;;13.97;100.00
30463;BME280;17256;43.618;25.336;2023-05-19T04:09:02;100635.19;;;14.85;100.00
30463;BME280;17256;43.618;25.336;2023-05-19T04:11:32;100770.66;;;15.66;100.00
30463;BME280;17256;43.618;25.336;2023-05-19T04:13:58;100745.81;;;15.53;100.00
30463;BME280;17256;43.618;25.336;2023-05-19T04:16:24;100557.06;;;14.71;100.00
30463;BME280;17256;43.618;25.336;2023-05-19T04:18:50;100502.97;;;14.57;100.00
30463;BME280;17256;43.618;25.336;2023-05-19T04:36:05;100727.16;;;16.40;100.00
30463;BME280;17256;43.618;25.336;2023-05-19T04:47:07;100592.72;;;16.30;100.00
30463;BME280;17256;43.618;25.336;2023-05-19T04:49:53;100927.91;;;18.24;100.00
30463;BME280;17256;43.618;25.336;2023-05-19T04:52:57;100722.41;;;17.00;100.00
30463;BME280;17256;43.618;25.336;2023-05-19T05:49:57;100798.75;;;19.12;100.00
30463;BME280;17256;43.618;25.336;2023-05-19T05:52:38;101011.47;;;20.13;100.00
30463;BME280;17256;43.618;25.336;2023-05-19T05:55:39;100669.34;;;18.35;100.00
30463;BME280;17256;43.618;25.336;2023-05-19T05:59:02;100612.38;;;18.66;100.00
30463;BME280;17256;43.618;25.336;2023-05-19T06:02:16;100694.38;;;19.31;98.37
30463;BME280;17256;43.618;25.336;2023-05-19T06:05:30;101001.41;;;21.23;99.79
30463;BME280;17256;43.618;25.336;2023-05-19T06:08:09;100814.94;;;20.15;98.33
30463;BME280;17256;43.618;25.336;2023-05-19T06:33:49;100911.97;;;21.17;90.40
30463;BME280;17256;43.618;25.336;2023-05-19T06:36:22;100680.91;;;20.00;88.73
30463;BME280;17256;43.618;25.336;2023-05-19T06:39:02;100936.53;;;21.37;92.39
30463;BME280;17256;43.618;25.336;2023-05-19T06:41:37;100877.25;;;21.08;92.13
30463;BME280;17256;43.618;25.336;2023-05-19T07:04:37;100708.97;;;20.15;96.74
30463;BME280;17256;43.618;25.336;2023-05-19T07:30:46;101042.63;;;23.09;77.85
30463;BME280;17256;43.618;25.336;2023-05-19T07:33:45;100815.75;;;21.03;83.32
30463;BME280;17256;43.618;25.336;2023-05-19T08:08:03;100773.16;;;21.82;77.69
30463;BME280;17256;43.618;25.336;2023-05-19T11:17:06;100952.91;;;27.27;61.45
30463;BME280;17256;43.618;25.336;2023-05-19T11:37:07;100747.69;;;18.89;100.00
30463;BME280;17256;43.618;25.336;2023-05-19T12:22:42;100927.66;;;22.36;100.00
30463;BME280;17256;43.618;25.336;2023-05-19T12:26:25;100530.28;;;20.17;100.00
30463;BME280;17256;43.618;25.336;2023-05-19T12:29:51;100563.28;;;20.57;100.00
30463;BME280;17256;43.618;25.336;2023-05-19T12:32:29;100908.53;;;23.38;100.00
30463;BME280;17256;43.618;25.336;2023-05-19T12:35:09;100818.25;;;23.21;100.00
30463;BME280;17256;43.618;25.336;2023-05-19T12:39:03;100649.78;;;22.31;98.81
30463;BME280;17256;43.618;25.336;2023-05-19T12:42:28;100891.97;;;23.37;100.00
30463;BME280;17256;43.618;25.336;2023-05-19T12:46:11;100877.94;;;23.26;100.00
30463;BME280;17256;43.618;25.336;2023-05-19T15:26:26;100935.34;;;25.12;71.58
30463;BME280;17256;43.618;25.336;2023-05-19T15:30:46;100951.53;;;24.40;73.35
30463;BME280;17256;43.618;25.336;2023-05-19T15:52:36;100640.94;;;19.12;100.00
30463;BME280;17256;43.618;25.336;2023-05-19T16:27:07;100753.81;;;17.36;100.00
30463;BME280;17256;43.618;25.336;2023-05-19T16:30:24;100968.28;;;18.50;100.00
30463;BME280;17256;43.618;25.336;2023-05-19T16:34:44;100853.38;;;17.86;100.00
30463;BME280;17256;43.618;25.336;2023-05-19T16:38:38;100553.28;;;16.05;100.00
30463;BME280;17256;43.618;25.336;2023-05-19T16:41:58;100839.81;;;17.77;100.00
30463;BME280;17256;43.618;25.336;2023-05-19T16:44:57;100995.03;;;18.74;100.00
30463;BME280;17256;43.618;25.336;2023-05-19T16:48:43;100985.84;;;18.85;100.00
30463;BME280;17256;43.618;25.336;2023-05-19T16:54:59;100888.50;;;18.38;100.00
30463;BME280;17256;43.618;25.336;2023-05-19T18:09:35;101062.84;;;17.66;100.00
30463;BME280;17256;43.618;25.336;2023-05-19T18:23:26;100826.53;;;15.99;100.00
30463;BME280;17256;43.618;25.336;2023-05-19T18:26:02;101084.63;;;17.51;100.00
30463;BME280;17256;43.618;25.336;2023-05-19T18:28:49;100835.78;;;16.12;100.00
30463;BME280;17256;43.618;25.336;2023-05-19T18:32:20;100828.75;;;15.91;100.00
30463;BME280;17256;43.618;25.336;2023-05-19T18:35:27;100719.16;;;15.15;100.00
30463;BME280;17256;43.618;25.336;2023-05-19T18:38:01;101010.19;;;17.11;100.00
30463;BME280;17256;43.618;25.336;2023-05-19T18:40:32;100841.47;;;16.17;100.00
30463;BME280;17256;43.618;25.336;2023-05-19T18:43:04;100865.94;;;16.20;100.00
30463;BME280;17256;43.618;25.336;2023-05-19T18:57:03;100838.81;;;15.85;100.00
30463;BME280;17256;43.618;25.336;2023-05-19T19:21:00;101064.97;;;17.34;100.00
30463;BME280;17256;43.618;25.336;2023-05-19T19:35:47;101089.56;;;17.49;100.00
30463;BME280;17256;43.618;25.336;2023-05-19T19:38:47;100862.16;;;15.96;100.00
30463;BME280;17256;43.618;25.336;2023-05-19T19:48:56;100768.66;;;15.23;100.00
30463;BME280;17256;43.618;25.336;2023-05-19T19:54:14;100895.47;;;15.89;100.00
30463;BME280;17256;43.618;25.336;2023-05-19T20:00:39;101034.28;;;16.74;100.00
30463;BME280;17256;43.618;25.336;2023-05-19T20:07:34;100684.22;;;14.71;100.00
30463;BME280;17256;43.618;25.336;2023-05-19T20:18:34;100677.63;;;14.34;100.00
30463;BME280;17256;43.618;25.336;2023-05-19T20:21:30;100777.81;;;14.99;100.00
30463;BME280;17256;43.618;25.336;2023-05-19T20:24:01;100867.16;;;15.31;100.00
30463;BME280;17256;43.618;25.336;2023-05-19T20:26:26;100980.75;;;16.06;100.00
30463;BME280;17256;43.618;25.336;2023-05-19T20:28:53;100999.44;;;16.10;100.00
30463;BME280;17256;43.618;25.336;2023-05-19T20:31:20;100867.19;;;15.24;100.00
30463;BME280;17256;43.618;25.336;2023-05-19T20:34:01;100988.19;;;15.80;100.00
30463;BME280;17256;43.618;25.336;2023-05-19T20:40:47;101120.16;;;16.87;100.00
30463;BME280;17256;43.618;25.336;2023-05-19T20:51:45;101124.59;;;16.70;100.00
30463;BME280;17256;43.618;25.336;2023-05-19T20:54:28;100821.03;;;14.93;100.00
30463;BME280;17256;43.618;25.336;2023-05-19T20:57:26;100645.41;;;13.90;100.00
30463;BME280;17256;43.618;25.336;2023-05-19T21:01:04;100962.41;;;15.80;100.00
30463;BME280;17256;43.618;25.336;2023-05-19T21:05:17;101118.44;;;16.61;100.00
30463;BME280;17256;43.618;25.336;2023-05-19T21:09:01;100759.25;;;14.43;100.00
30463;BME280;17256;43.618;25.336;2023-05-19T21:12:52;100718.38;;;14.07;100.00
30463;BME280;17256;43.618;25.336;2023-05-19T21:16:56;101119.72;;;16.59;100.00
30463;BME280;17256;43.618;25.336;2023-05-19T21:20:54;100691.06;;;13.92;100.00
30463;BME280;17256;43.618;25.336;2023-05-19T21:47:14;101105.84;;;16.34;100.00
30463;BME280;17256;43.618;25.336;2023-05-19T21:50:08;101104.03;;;16.21;100.00
30463;BME280;17256;43.618;25.336;2023-05-19T21:53:09;100920.91;;;15.10;100.00
30463;BME280;17256;43.618;25.336;2023-05-19T21:56:08;101113.19;;;16.22;100.00
30463;BME280;17256;43.618;25.336;2023-05-19T21:58:45;101124.75;;;16.19;100.00
30463;BME280;17256;43.618;25.336;2023-05-19T22:01:27;100708.56;;;13.60;100.00
30463;BME280;17256;43.618;25.336;2023-05-19T22:04:29;100946.06;;;15.02;100.00
30463;BME280;17256;43.618;25.336;2023-05-19T22:07:35;100736.78;;;13.62;100.00
30463;BME280;17256;43.618;25.336;2023-05-19T22:10:09;100909.03;;;14.65;100.00
30463;BME280;17256;43.618;25.336;2023-05-19T22:12:41;100782.63;;;13.76;100.00
30463;BME280;17256;43.618;25.336;2023-05-19T22:15:08;100846.25;;;14.07;100.00
30463;BME280;17256;43.618;25.336;2023-05-19T22:17:35;100865.28;;;14.35;100.00
30463;BME280;17256;43.618;25.336;2023-05-19T22:20:01;100688.47;;;13.33;100.00
30463;BME280;17256;43.618;25.336;2023-05-19T22:26:19;101012.34;;;15.28;100.00
30463;BME280;17256;43.618;25.336;2023-05-19T22:41:12;100672.97;;;13.45;100.00
30463;BME280;17256;43.618;25.336;2023-05-19T22:44:00;100948.06;;;15.26;100.00
30463;BME280;17256;43.618;25.336;2023-05-19T22:46:28;100886.78;;;14.85;100.00
30463;BME280;17256;43.618;25.336;2023-05-19T22:49:00;100692.84;;;13.60;100.00
30463;BME280;17256;43.618;25.336;2023-05-19T22:51:30;100760.97;;;14.31;100.00
30463;BME280;17256;43.618;25.336;2023-05-19T23:02:45;100638.16;;;13.37;100.00
30463;BME280;17256;43.618;25.336;2023-05-19T23:05:15;100674.31;;;13.80;100.00
30463;BME280;17256;43.618;25.336;2023-05-19T23:08:04;100621.31;;;13.65;100.00
30463;BME280;17256;43.618;25.336;2023-05-19T23:10:30;100910.56;;;15.30;100.00
30463;BME280;17256;43.618;25.336;2023-05-19T23:12:59;100870.81;;;14.93;100.00
30463;BME280;17256;43.618;25.336;2023-05-19T23:15:25;101003.41;;;15.71;100.00
30463;BME280;17256;43.618;25.336;2023-05-19T23:17:55;100743.22;;;14.13;100.00
30463;BME280;17256;43.618;25.336;2023-05-19T23:20:42;100807.38;;;14.60;100.00
30463;BME280;17256;43.618;25.336;2023-05-19T23:23:20;100942.97;;;15.55;100.00
30463;BME280;17256;43.618;25.336;2023-05-19T23:25:52;101056.09;;;16.21;100.00
30463;BME280;17256;43.618;25.336;2023-05-19T23:28:21;100698.88;;;13.95;100.00
30463;BME280;17256;43.618;25.336;2023-05-19T23:30:52;100784.91;;;14.50;100.00
30463;BME280;17256;43.618;25.336;2023-05-19T23:33:40;101073.56;;;16.21;100.00
30463;BME280;17256;43.618;25.336;2023-05-19T23:37:51;101038.38;;;15.97;100.00
30463;BME280;17256;43.618;25.336;2023-05-19T23:42:07;101054.69;;;16.05;100.00
30463;BME280;17256;43.618;25.336;2023-05-19T23:49:21;101047.28;;;15.99;100.00
30463;BME280;17256;43.618;25.336;2023-05-19T23:56:27;100665.69;;;13.64;100.00
